香港 の空港の天気 - METARとTAF

香港国際空港 ( VHHH / HKG ) - 香港 赤リョウ角
飛行場実況気象(Metar)
観測時間02/17 22:30 HKT (02/17 14:30 UTC)
風向・風速東 11m/s
視程10km以上
天気現象
少しの雲 雲底高度 370m
全天の4割程度の雲 雲底高度 760m
気温20℃
湿度83%
気圧1017hPa
METARVHHH 171430Z 08021KT 9999 FEW012 SCT025 20/17 Q1017 NOSIG
過去の天気等 Google飛行場航空写真 Wunderground天気予報

過去48時間のMETAR

飛行場予報(TAF)
発表時間: 2/17 19:00 HKT (2/17 11:00 UTC)
予報対象時間: 17日20時 HKT ~ 19日2時 HKT
風向・風速東 10m/s
視程9000m
少しの雲 雲底高度 460m
全天の4割程度の雲 雲底高度 760m
18日12時 HKT ~ 18日16時 HKT に一時的に
視程3000m
天気現象弱い雷雨 しゅう雨
少しの積乱雲 雲底高度 300m
全天の4割程度の雲 雲底高度 610m
18日14時 HKT ~ 18日16時 HKT に徐々に
風向・風速南南東 5m/s
18日20時 HKT ~ 18日23時 HKT に一時的に
視程4000m
天気現象しゅう雨
少しの積乱雲 雲底高度 370m
全天の4割程度の雲 雲底高度 760m
18日23時 HKT ~ 19日2時 HKT に一時的に
視程2500m
天気現象雷雨 しゅう雨
少しの積乱雲 雲底高度 300m
全天の4割程度の雲 雲底高度 610m
TAF VHHH 171100Z 1712/1818 10020KT 9000 FEW015 SCT025 TX22/1812Z TN18/1723Z
TEMPO 1804/1808 3000 -TSRA SHRA FEW010CB SCT020
BECMG 1806/1808 15010KT
TEMPO 1812/1815 4000 SHRA FEW012CB SCT025
TEMPO 1815/1818 2500 TSRA SHRA FEW010CB SCT020